Time;durP1;ratioP1;P1;durP2;ratioP2;P2;SDS_P1;SDS_P2;PMS_P1;PMS_P2;Temp;Humidity;BMP_temperature;BMP_pressure;BME280_temperature;BME280_humidity;BME280_pressure;Samples;Min_cycle;Max_cycle;Signal;HPM_P1;HPM_P2
2021/08/10 00:02:01;;;;;;;6.30;3.20;;;;;;;;;;5034779;28;20326;-60
2021/08/10 00:04:26;;;;;;;6.35;3.50;;;;;;;;;;5042799;28;20393;-59
2021/08/10 00:06:51;;;;;;;4.03;3.25;;;;;;;;;;5041471;28;20031;-61
2021/08/10 00:09:17;;;;;;;7.72;3.40;;;;;;;;;;5040474;28;20025;-61
2021/08/10 00:11:42;;;;;;;5.85;3.35;;;;;;;;;;5038038;28;20040;-61
2021/08/10 00:14:11;;;;;;;7.20;3.30;;;;;;;;;;5037395;28;20055;-61
2021/08/10 00:16:38;;;;;;;4.07;2.90;;;;;;;;;;5041563;28;20476;-60
2021/08/10 00:19:03;;;;;;;4.63;3.30;;;;;;;;;;5034626;28;20083;-61
2021/08/10 00:21:29;;;;;;;5.68;3.95;;;;;;;;;;5030799;28;20029;-61
2021/08/10 00:23:54;;;;;;;6.72;3.40;;;;;;;;;;5042633;28;20033;-61
2021/08/10 00:26:20;;;;;;;5.68;3.42;;;;;;;;;;5044344;28;20317;-61
2021/08/10 00:28:45;;;;;;;7.13;3.30;;;;;;;;;;5040234;28;20021;-61
2021/08/10 00:31:11;;;;;;;5.10;3.15;;;;;;;;;;5044966;28;20491;-60
2021/08/10 00:33:36;;;;;;;5.82;3.20;;;;;;;;;;5038809;28;20493;-60
2021/08/10 00:36:02;;;;;;;6.75;3.13;;;;;;;;;;5039564;28;20032;-60
2021/08/10 00:38:28;;;;;;;4.20;3.08;;;;;;;;;;5040984;28;20031;-60
2021/08/10 00:40:54;;;;;;;5.70;3.33;;;;;;;;;;5041318;28;20029;-61
2021/08/10 00:43:37;;;;;;;4.10;3.22;;;;;;;;;;5038939;28;20121;-60
2021/08/10 00:46:05;;;;;;;5.28;3.50;;;;;;;;;;5039436;28;20075;-60
2021/08/10 00:48:31;;;;;;;6.28;3.33;;;;;;;;;;5041399;28;20038;-60
2021/08/10 00:50:57;;;;;;;6.47;3.25;;;;;;;;;;5042061;28;20049;-60
2021/08/10 00:53:23;;;;;;;4.70;3.00;;;;;;;;;;5046669;28;20093;-60
2021/08/10 00:55:49;;;;;;;5.03;3.25;;;;;;;;;;5040080;28;20383;-60
2021/08/10 00:58:15;;;;;;;5.25;3.45;;;;;;;;;;5040123;28;20056;-60
2021/08/10 01:00:41;;;;;;;3.88;2.90;;;;;;;;;;5043620;28;20239;-60
2021/08/10 01:03:06;;;;;;;5.63;2.97;;;;;;;;;;5042964;28;20376;-61
2021/08/10 01:05:32;;;;;;;7.70;3.20;;;;;;;;;;5040206;28;20033;-60
2021/08/10 01:08:12;;;;;;;5.60;3.15;;;;;;;;;;5040676;28;20040;-60
2021/08/10 01:10:47;;;;;;;5.03;3.38;;;;;;;;;;5040977;28;20025;-60
2021/08/10 01:13:38;;;;;;;6.90;3.10;;;;;;;;;;5039298;28;20127;-60
2021/08/10 01:16:23;;;;;;;4.43;2.83;;;;;;;;;;5029666;28;20467;-60
2021/08/10 01:19:08;;;;;;;6.70;3.22;;;;;;;;;;5037012;28;20024;-60
2021/08/10 01:21:38;;;;;;;6.03;3.15;;;;;;;;;;5040157;28;20029;-60
2021/08/10 01:24:21;;;;;;;5.32;3.28;;;;;;;;;;5042454;28;20115;-61
2021/08/10 01:27:11;;;;;;;5.75;2.95;;;;;;;;;;5043920;28;20163;-60
2021/08/10 01:30:01;;;;;;;6.68;3.70;;;;;;;;;;5044273;28;20438;-60
2021/08/10 01:32:29;;;;;;;3.90;3.03;;;;;;;;;;5039286;28;20060;-60
2021/08/10 01:34:55;;;;;;;6.03;3.05;;;;;;;;;;5046431;28;20483;-60
2021/08/10 01:37:24;;;;;;;5.22;2.90;;;;;;;;;;5044835;28;20036;-61
2021/08/10 01:39:51;;;;;;;;;;;;;;;;;;5044716;28;20103;-60
2021/08/10 01:42:18;;;;;;;3.55;2.92;;;;;;;;;;5042987;28;19924;-61
2021/08/10 01:44:44;;;;;;;6.18;2.88;;;;;;;;;;5044502;28;20111;-60
2021/08/10 01:47:11;;;;;;;5.50;2.90;;;;;;;;;;5041518;28;20108;-60
2021/08/10 01:49:39;;;;;;;3.90;2.97;;;;;;;;;;5045515;28;20419;-61
2021/08/10 01:52:06;;;;;;;4.70;2.85;;;;;;;;;;5035978;28;20044;-62
2021/08/10 01:54:32;;;;;;;3.22;2.83;;;;;;;;;;5043053;28;20032;-60
2021/08/10 01:57:00;;;;;;;4.05;2.80;;;;;;;;;;5044622;28;20425;-60
2021/08/10 01:59:26;;;;;;;4.18;2.88;;;;;;;;;;5045596;28;20040;-60
2021/08/10 02:01:53;;;;;;;3.05;2.35;;;;;;;;;;5046254;28;20447;-60
2021/08/10 02:04:20;;;;;;;4.57;2.92;;;;;;;;;;5046157;28;20071;-60
2021/08/10 02:06:48;;;;;;;3.45;2.58;;;;;;;;;;5040300;28;20051;-61
2021/08/10 02:09:17;;;;;;;3.67;2.53;;;;;;;;;;5037078;28;20103;-60
2021/08/10 02:11:43;;;;;;;4.63;2.88;;;;;;;;;;5044257;28;20037;-60
2021/08/10 02:14:09;;;;;;;5.00;2.88;;;;;;;;;;5044578;28;20128;-60
2021/08/10 02:16:36;;;;;;;3.55;2.67;;;;;;;;;;5042488;28;20091;-60
2021/08/10 02:19:02;;;;;;;5.72;2.90;;;;;;;;;;5040244;28;20040;-60
2021/08/10 02:21:33;;;;;;;5.53;2.92;;;;;;;;;;5043918;28;20025;-60
2021/08/10 02:24:10;;;;;;;6.65;2.95;;;;;;;;;;5040543;28;20044;-60
2021/08/10 02:26:43;;;;;;;4.47;2.70;;;;;;;;;;5037541;28;20028;-60
2021/08/10 02:29:10;;;;;;;5.25;2.83;;;;;;;;;;5048526;28;20120;-60
2021/08/10 02:31:37;;;;;;;5.95;3.72;;;;;;;;;;5037093;28;20095;-60
2021/08/10 02:34:02;;;;;;;3.72;2.67;;;;;;;;;;5043716;28;20028;-60
2021/08/10 02:36:30;;;;;;;5.45;2.55;;;;;;;;;;5044268;28;20035;-60
2021/08/10 02:39:00;;;;;;;6.63;2.80;;;;;;;;;;5042394;28;20032;-59
2021/08/10 02:41:26;;;;;;;3.85;2.75;;;;;;;;;;5041978;28;20029;-60
2021/08/10 02:43:52;;;;;;;3.92;2.60;;;;;;;;;;5045145;28;20087;-60
2021/08/10 02:46:18;;;;;;;5.45;2.78;;;;;;;;;;5038314;28;20558;-60
2021/08/10 02:48:44;;;;;;;5.22;2.50;;;;;;;;;;5035834;28;20036;-60
2021/08/10 02:51:09;;;;;;;5.13;2.70;;;;;;;;;;5045171;28;20087;-60
2021/08/10 02:53:35;;;;;;;4.45;2.63;;;;;;;;;;5038239;28;20029;-60
2021/08/10 02:56:21;;;;;;;4.68;2.95;;;;;;;;;;5040550;28;20025;-60
2021/08/10 02:58:54;;;;;;;6.35;3.38;;;;;;;;;;5042618;28;20033;-60
2021/08/10 03:01:35;;;;;;;4.75;2.38;;;;;;;;;;5045530;28;20025;-60
2021/08/10 03:04:03;;;;;;;4.85;2.67;;;;;;;;;;5042654;28;20087;-60
2021/08/10 03:06:31;;;;;;;5.72;2.60;;;;;;;;;;5038486;28;20415;-60
2021/08/10 03:08:59;;;;;;;3.95;2.40;;;;;;;;;;5034101;28;20479;-60
2021/08/10 03:11:26;;;;;;;3.80;2.58;;;;;;;;;;5036452;28;20090;-60
2021/08/10 03:13:53;;;;;;;4.35;2.90;;;;;;;;;;5045034;28;20153;-60
2021/08/10 03:16:20;;;;;;;3.47;2.63;;;;;;;;;;5034939;28;20044;-60
2021/08/10 03:18:49;;;;;;;3.97;2.50;;;;;;;;;;5042545;28;20028;-60
2021/08/10 03:21:15;;;;;;;3.38;2.30;;;;;;;;;;5038582;28;20033;-60
2021/08/10 03:23:42;;;;;;;4.50;2.35;;;;;;;;;;5046688;28;20043;-60
2021/08/10 03:26:09;;;;;;;5.28;2.55;;;;;;;;;;5037464;28;20427;-60
2021/08/10 03:28:41;;;;;;;4.38;2.75;;;;;;;;;;5042510;28;20025;-60
2021/08/10 03:31:07;;;;;;;7.95;2.60;;;;;;;;;;5034994;28;20107;-60
2021/08/10 03:33:33;;;;;;;5.45;2.17;;;;;;;;;;5037927;28;20025;-59
2021/08/10 03:35:59;;;;;;;5.45;2.97;;;;;;;;;;5039465;28;20032;-60
2021/08/10 03:38:25;;;;;;;5.60;2.72;;;;;;;;;;5039112;28;20472;-60
2021/08/10 03:40:52;;;;;;;4.32;2.67;;;;;;;;;;5042603;28;20098;-60
2021/08/10 03:43:17;;;;;;;5.45;2.50;;;;;;;;;;5047017;28;20025;-60
2021/08/10 03:45:43;;;;;;;5.22;2.70;;;;;;;;;;5038092;28;20043;-60
2021/08/10 03:48:11;;;;;;;3.78;2.35;;;;;;;;;;5039234;28;20068;-60
2021/08/10 03:50:38;;;;;;;4.25;2.42;;;;;;;;;;5045669;28;20037;-60
2021/08/10 03:53:04;;;;;;;4.40;2.58;;;;;;;;;;5045004;28;20439;-60
2021/08/10 03:55:32;;;;;;;3.95;2.55;;;;;;;;;;5047508;28;20024;-60
2021/08/10 03:57:58;;;;;;;3.60;2.50;;;;;;;;;;5041183;28;20037;-60
2021/08/10 04:00:24;;;;;;;5.15;2.90;;;;;;;;;;5039998;28;20028;-60
2021/08/10 04:02:51;;;;;;;3.20;2.40;;;;;;;;;;5041529;28;20025;-60
2021/08/10 04:05:17;;;;;;;4.15;2.60;;;;;;;;;;5036863;28;20034;-59
2021/08/10 04:07:43;;;;;;;3.78;2.65;;;;;;;;;;5037977;28;20075;-60
2021/08/10 04:10:09;;;;;;;4.07;2.60;;;;;;;;;;5039658;28;20028;-60
2021/08/10 04:12:35;;;;;;;4.10;2.78;;;;;;;;;;5038753;28;20032;-60
2021/08/10 04:15:01;;;;;;;4.45;2.92;;;;;;;;;;5041582;28;20037;-60
2021/08/10 04:17:29;;;;;;;5.70;3.42;;;;;;;;;;5041114;28;20036;-60
2021/08/10 04:19:57;;;;;;;6.60;2.87;;;;;;;;;;5042190;28;20029;-60
2021/08/10 04:22:22;;;;;;;5.25;3.05;;;;;;;;;;5038409;28;20049;-60
2021/08/10 04:24:48;;;;;;;4.82;2.78;;;;;;;;;;5033765;28;20049;-60
2021/08/10 04:27:14;;;;;;;4.63;2.60;;;;;;;;;;5036732;28;20071;-60
2021/08/10 04:29:40;;;;;;;5.43;2.97;;;;;;;;;;5038593;28;20047;-60
2021/08/10 04:32:07;;;;;;;5.07;2.63;;;;;;;;;;5037037;28;20547;-60
2021/08/10 04:34:32;;;;;;;6.90;2.95;;;;;;;;;;5038668;28;20028;-60
2021/08/10 04:36:57;;;;;;;3.75;2.58;;;;;;;;;;5043178;28;20112;-60
2021/08/10 04:39:26;;;;;;;3.88;2.55;;;;;;;;;;5044350;28;20579;-60
2021/08/10 04:41:55;;;;;;;5.43;2.72;;;;;;;;;;5038698;28;20515;-60
2021/08/10 04:44:21;;;;;;;6.07;2.58;;;;;;;;;;5040521;28;20036;-60
2021/08/10 04:46:47;;;;;;;12.30;4.00;;;;;;;;;;5040481;28;20032;-60
2021/08/10 04:49:13;;;;;;;8.00;3.10;;;;;;;;;;5039315;28;20540;-60
2021/08/10 04:51:38;;;;;;;6.32;3.60;;;;;;;;;;5034424;28;20026;-60
2021/08/10 04:54:04;;;;;;;4.10;3.03;;;;;;;;;;5041830;28;20033;-59
2021/08/10 04:56:30;;;;;;;5.03;3.00;;;;;;;;;;5048927;28;20032;-60
2021/08/10 04:58:55;;;;;;;8.63;3.00;;;;;;;;;;5030474;28;20029;-60
2021/08/10 05:01:21;;;;;;;13.98;7.40;;;;;;;;;;5044737;28;20087;-59
2021/08/10 05:03:46;;;;;;;9.10;4.57;;;;;;;;;;5044423;28;20020;-60
2021/08/10 05:06:12;;;;;;;7.53;3.85;;;;;;;;;;5046962;28;20033;-60
2021/08/10 05:08:37;;;;;;;6.10;3.17;;;;;;;;;;5034851;28;20443;-59
2021/08/10 05:11:03;;;;;;;8.63;3.60;;;;;;;;;;5042716;28;20040;-59
2021/08/10 05:13:28;;;;;;;5.93;3.42;;;;;;;;;;5039754;28;20029;-60
2021/08/10 05:15:54;;;;;;;4.90;3.72;;;;;;;;;;5041642;28;20051;-59
2021/08/10 05:18:19;;;;;;;6.15;4.10;;;;;;;;;;5044232;28;20107;-59
2021/08/10 05:20:45;;;;;;;5.63;3.95;;;;;;;;;;5045814;28;20024;-60
2021/08/10 05:23:10;;;;;;;5.10;3.63;;;;;;;;;;5046027;28;20029;-60
2021/08/10 05:25:36;;;;;;;5.93;3.90;;;;;;;;;;5044343;28;20033;-59
2021/08/10 05:28:01;;;;;;;7.50;3.50;;;;;;;;;;5040355;28;20037;-60
2021/08/10 05:30:27;;;;;;;5.43;3.60;;;;;;;;;;5043745;28;20061;-60
2021/08/10 05:32:52;;;;;;;7.72;3.67;;;;;;;;;;5044455;28;20059;-60
2021/08/10 05:35:17;;;;;;;6.82;4.10;;;;;;;;;;5045620;28;20076;-59
2021/08/10 05:37:43;;;;;;;6.78;5.03;;;;;;;;;;5041712;28;20098;-59
2021/08/10 05:40:09;;;;;;;7.70;5.32;;;;;;;;;;5043588;28;20083;-60
2021/08/10 05:42:34;;;;;;;7.03;4.75;;;;;;;;;;5047345;28;20044;-58
2021/08/10 05:45:00;;;;;;;6.70;4.40;;;;;;;;;;5047739;28;20016;-59
2021/08/10 05:47:25;;;;;;;11.98;4.43;;;;;;;;;;5045947;28;20154;-59
2021/08/10 05:49:50;;;;;;;8.25;4.85;;;;;;;;;;5041364;28;20017;-59
2021/08/10 05:52:16;;;;;;;9.93;4.78;;;;;;;;;;5038114;28;20029;-59
2021/08/10 05:54:41;;;;;;;7.53;4.95;;;;;;;;;;5043968;28;20029;-59
2021/08/10 05:57:07;;;;;;;7.93;4.40;;;;;;;;;;5039156;28;20024;-59
2021/08/10 05:59:32;;;;;;;6.63;4.18;;;;;;;;;;5033781;28;20442;-59
2021/08/10 06:01:59;;;;;;;5.82;3.55;;;;;;;;;;5036371;28;20040;-59
2021/08/10 06:04:25;;;;;;;6.25;3.90;;;;;;;;;;5040364;28;20392;-59
2021/08/10 06:06:50;;;;;;;6.53;3.75;;;;;;;;;;5039544;28;20086;-59
2021/08/10 06:09:16;;;;;;;7.28;4.25;;;;;;;;;;5039168;28;20033;-59
2021/08/10 06:11:41;;;;;;;7.10;4.78;;;;;;;;;;5034688;28;20396;-59
2021/08/10 06:14:07;;;;;;;8.55;5.28;;;;;;;;;;5037002;28;20025;-59
2021/08/10 06:16:33;;;;;;;7.65;4.75;;;;;;;;;;5035808;28;20193;-59
2021/08/10 06:18:59;;;;;;;7.13;4.40;;;;;;;;;;5038855;28;20091;-59
2021/08/10 06:21:25;;;;;;;7.72;4.20;;;;;;;;;;5038544;28;20031;-59
2021/08/10 06:23:51;;;;;;;6.75;4.70;;;;;;;;;;5042015;28;20436;-59
2021/08/10 06:26:17;;;;;;;6.57;4.65;;;;;;;;;;5041649;28;20052;-59
2021/08/10 06:28:42;;;;;;;6.00;4.40;;;;;;;;;;5042501;28;20059;-59
2021/08/10 06:31:09;;;;;;;8.20;3.80;;;;;;;;;;5044282;28;20032;-59
2021/08/10 06:33:35;;;;;;;5.72;3.95;;;;;;;;;;5035948;28;20097;-59
2021/08/10 06:36:00;;;;;;;5.15;3.65;;;;;;;;;;5034672;28;20037;-59
2021/08/10 06:38:26;;;;;;;6.70;3.90;;;;;;;;;;5050173;28;20036;-59
2021/08/10 06:40:52;;;;;;;7.25;3.60;;;;;;;;;;5033472;28;20231;-59
2021/08/10 06:43:17;;;;;;;5.43;3.90;;;;;;;;;;5041749;28;20025;-59
2021/08/10 06:45:43;;;;;;;7.88;3.95;;;;;;;;;;5038363;28;20048;-59
2021/08/10 06:48:08;;;;;;;3.92;3.00;;;;;;;;;;5038335;28;20021;-59
2021/08/10 06:50:34;;;;;;;6.05;3.20;;;;;;;;;;5045276;28;20144;-59
2021/08/10 06:52:59;;;;;;;6.10;3.08;;;;;;;;;;5042480;28;20037;-59
2021/08/10 06:55:24;;;;;;;3.78;2.90;;;;;;;;;;5033823;28;20060;-59
2021/08/10 06:57:50;;;;;;;4.30;2.97;;;;;;;;;;5036969;28;20360;-59
2021/08/10 07:00:15;;;;;;;4.55;2.85;;;;;;;;;;5040041;28;20024;-59
2021/08/10 07:02:41;;;;;;;5.50;3.10;;;;;;;;;;5035274;28;20039;-59
2021/08/10 07:05:07;;;;;;;4.75;3.10;;;;;;;;;;5039582;28;20025;-59
2021/08/10 07:07:32;;;;;;;4.38;2.88;;;;;;;;;;5034343;28;20033;-59
2021/08/10 07:09:59;;;;;;;4.97;3.17;;;;;;;;;;5037289;28;20055;-59
2021/08/10 07:12:24;;;;;;;5.15;2.72;;;;;;;;;;5036454;28;20069;-59
2021/08/10 07:14:50;;;;;;;5.63;3.47;;;;;;;;;;5041392;28;20075;-59
2021/08/10 07:17:15;;;;;;;5.10;2.63;;;;;;;;;;5037817;28;20040;-59
2021/08/10 07:19:41;;;;;;;4.55;2.80;;;;;;;;;;5043239;28;20021;-58
2021/08/10 07:22:06;;;;;;;4.47;2.67;;;;;;;;;;5037413;28;20051;-59
2021/08/10 07:24:32;;;;;;;3.08;2.78;;;;;;;;;;5047526;28;20211;-59
2021/08/10 07:26:57;;;;;;;4.05;2.42;;;;;;;;;;5038308;28;20795;-59
2021/08/10 07:29:23;;;;;;;5.22;2.95;;;;;;;;;;5037460;28;20029;-59
2021/08/10 07:31:48;;;;;;;4.90;3.03;;;;;;;;;;5037968;28;20393;-58
2021/08/10 07:34:14;;;;;;;4.82;2.80;;;;;;;;;;5044157;28;20147;-58
2021/08/10 07:36:39;;;;;;;5.93;3.20;;;;;;;;;;5046619;28;20052;-59
2021/08/10 07:39:05;;;;;;;5.47;2.92;;;;;;;;;;5043548;28;20025;-59
2021/08/10 07:41:31;;;;;;;4.93;3.00;;;;;;;;;;5043930;28;20036;-59
2021/08/10 07:43:57;;;;;;;3.45;2.60;;;;;;;;;;5043792;28;20033;-59
2021/08/10 07:46:23;;;;;;;5.93;3.10;;;;;;;;;;5037954;28;20043;-59
2021/08/10 07:48:50;;;;;;;3.50;2.50;;;;;;;;;;5039904;28;20106;-59
2021/08/10 07:51:16;;;;;;;5.25;2.80;;;;;;;;;;5041127;28;20520;-59
2021/08/10 07:53:42;;;;;;;5.93;2.90;;;;;;;;;;5035112;28;20056;-59
2021/08/10 07:56:07;;;;;;;4.53;2.58;;;;;;;;;;5035334;28;20024;-59
2021/08/10 07:58:33;;;;;;;5.82;3.20;;;;;;;;;;5040604;28;20044;-59
2021/08/10 08:00:58;;;;;;;5.38;2.90;;;;;;;;;;5042805;28;20017;-59
2021/08/10 08:03:24;;;;;;;4.47;2.60;;;;;;;;;;5047864;28;20317;-59
2021/08/10 08:05:49;;;;;;;4.38;2.50;;;;;;;;;;5038029;28;20056;-59
2021/08/10 08:08:16;;;;;;;6.53;2.55;;;;;;;;;;5042519;28;20499;-59
2021/08/10 08:10:41;;;;;;;4.70;2.28;;;;;;;;;;5038936;28;20052;-59
2021/08/10 08:13:07;;;;;;;4.05;2.58;;;;;;;;;;5042813;28;20021;-59
2021/08/10 08:15:34;;;;;;;5.00;2.75;;;;;;;;;;5041470;28;20124;-59
2021/08/10 08:18:00;;;;;;;6.00;2.67;;;;;;;;;;5035306;28;20066;-59
2021/08/10 08:20:25;;;;;;;4.15;2.90;;;;;;;;;;5037164;28;20453;-59
2021/08/10 08:22:51;;;;;;;3.92;2.60;;;;;;;;;;5039772;28;20036;-59
2021/08/10 08:25:16;;;;;;;3.83;2.53;;;;;;;;;;5040943;28;20255;-59
2021/08/10 08:27:42;;;;;;;3.17;2.30;;;;;;;;;;5038238;28;20094;-59
2021/08/10 08:30:08;;;;;;;6.03;2.53;;;;;;;;;;5037837;28;20025;-59
2021/08/10 08:32:34;;;;;;;3.22;2.40;;;;;;;;;;5041014;28;20028;-59
2021/08/10 08:34:59;;;;;;;4.63;2.30;;;;;;;;;;5045618;28;20037;-59
2021/08/10 08:37:25;;;;;;;4.45;2.50;;;;;;;;;;5042752;28;20438;-59
2021/08/10 08:39:50;;;;;;;4.35;2.47;;;;;;;;;;5038349;28;20021;-59
2021/08/10 08:42:16;;;;;;;4.60;2.33;;;;;;;;;;5045199;28;20103;-59
2021/08/10 08:44:41;;;;;;;5.53;2.70;;;;;;;;;;5043566;28;20167;-59
2021/08/10 08:47:09;;;;;;;4.55;2.60;;;;;;;;;;5038539;28;20039;-59
2021/08/10 08:49:36;;;;;;;4.90;2.50;;;;;;;;;;5038796;28;20036;-59
2021/08/10 08:52:09;;;;;;;5.35;2.72;;;;;;;;;;5040240;28;20029;-60
2021/08/10 08:54:35;;;;;;;5.07;2.47;;;;;;;;;;5035038;28;20028;-59
2021/08/10 08:57:01;;;;;;;3.80;2.50;;;;;;;;;;5036698;28;20025;-59
2021/08/10 08:59:28;;;;;;;3.55;2.63;;;;;;;;;;5035831;28;20108;-59
2021/08/10 09:01:54;;;;;;;6.70;2.72;;;;;;;;;;5041938;28;20035;-59
2021/08/10 09:04:20;;;;;;;4.82;3.13;;;;;;;;;;5032513;28;20029;-59
2021/08/10 09:06:47;;;;;;;3.22;2.50;;;;;;;;;;5034776;28;20069;-59
2021/08/10 09:09:23;;;;;;;4.45;2.60;;;;;;;;;;5029947;28;20450;-60
2021/08/10 09:11:54;;;;;;;3.90;2.50;;;;;;;;;;5038104;28;20021;-60
2021/08/10 09:14:21;;;;;;;3.33;2.30;;;;;;;;;;5041205;28;20030;-59
2021/08/10 09:17:07;;;;;;;5.13;2.40;;;;;;;;;;5039771;28;20038;-59
2021/08/10 09:19:51;;;;;;;4.47;2.65;;;;;;;;;;5037648;28;20056;-60
2021/08/10 09:22:21;;;;;;;6.68;2.78;;;;;;;;;;5032629;28;20025;-60
2021/08/10 09:24:53;;;;;;;3.60;2.40;;;;;;;;;;5039907;28;20031;-60
2021/08/10 09:27:31;;;;;;;7.72;2.47;;;;;;;;;;5039242;28;20079;-60
2021/08/10 09:29:58;;;;;;;3.83;2.28;;;;;;;;;;5036726;28;20025;-59
2021/08/10 09:32:24;;;;;;;3.38;2.60;;;;;;;;;;5034799;28;20033;-60
2021/08/10 09:35:18;;;;;;;5.25;2.88;;;;;;;;;;5045074;28;20024;-60
2021/08/10 09:38:11;;;;;;;5.07;2.83;;;;;;;;;;5037940;28;20033;-58
2021/08/10 09:40:41;;;;;;;4.10;2.63;;;;;;;;;;5044010;28;20495;-59
2021/08/10 09:43:25;;;;;;;3.45;2.50;;;;;;;;;;5041621;28;20025;-59
2021/08/10 09:46:09;;;;;;;5.47;3.10;;;;;;;;;;5034910;28;20404;-60
2021/08/10 09:48:35;;;;;;;3.97;2.30;;;;;;;;;;5041128;28;20459;-60
2021/08/10 09:51:22;;;;;;;4.32;2.63;;;;;;;;;;5041538;28;20089;-59
2021/08/10 09:54:02;;;;;;;4.68;2.72;;;;;;;;;;5041705;28;20029;-59
2021/08/10 09:56:51;;;;;;;6.13;2.88;;;;;;;;;;5040554;28;20124;-58
2021/08/10 09:59:21;;;;;;;6.03;2.80;;;;;;;;;;5040837;28;20025;-58
2021/08/10 10:01:56;;;;;;;4.82;2.83;;;;;;;;;;5052107;28;20028;-58
2021/08/10 10:04:24;;;;;;;6.15;2.85;;;;;;;;;;5042256;28;20033;-58
2021/08/10 10:06:55;;;;;;;3.05;2.47;;;;;;;;;;5048768;28;20035;-58
2021/08/10 10:09:23;;;;;;;4.65;3.17;;;;;;;;;;5034469;28;20042;-58
2021/08/10 10:11:51;;;;;;;7.57;2.90;;;;;;;;;;5037629;28;20025;-58
2021/08/10 10:14:17;;;;;;;4.80;3.17;;;;;;;;;;5044235;28;20025;-58
2021/08/10 10:16:50;;;;;;;8.13;3.00;;;;;;;;;;5041662;28;20024;-58
2021/08/10 10:19:18;;;;;;;5.63;2.85;;;;;;;;;;5038524;28;20501;-58
2021/08/10 10:21:54;;;;;;;4.85;2.80;;;;;;;;;;5040355;28;20341;-58
2021/08/10 10:24:21;;;;;;;5.97;3.50;;;;;;;;;;5045745;28;20041;-58
2021/08/10 10:27:04;;;;;;;4.05;3.15;;;;;;;;;;5043420;28;20106;-58
2021/08/10 10:29:30;;;;;;;5.88;3.40;;;;;;;;;;5038852;28;20434;-58
2021/08/10 10:31:57;;;;;;;7.90;3.08;;;;;;;;;;5038049;28;20032;-58
2021/08/10 10:34:23;;;;;;;4.72;3.30;;;;;;;;;;5038648;28;20433;-58
2021/08/10 10:36:50;;;;;;;5.75;3.03;;;;;;;;;;5042581;28;20033;-58
2021/08/10 10:39:27;;;;;;;6.13;3.10;;;;;;;;;;5035083;28;20029;-59
2021/08/10 10:41:56;;;;;;;10.75;3.78;;;;;;;;;;5040193;28;20275;-58
2021/08/10 10:44:41;;;;;;;8.68;3.03;;;;;;;;;;5045829;28;20218;-60
2021/08/10 10:47:25;;;;;;;7.38;3.13;;;;;;;;;;5037969;28;20025;-60
2021/08/10 10:49:57;;;;;;;7.18;2.90;;;;;;;;;;5041465;28;23155;-59
2021/08/10 10:52:24;;;;;;;6.75;3.42;;;;;;;;;;5035041;28;20029;-59
2021/08/10 10:54:49;;;;;;;6.03;3.30;;;;;;;;;;5033109;28;20077;-59
2021/08/10 10:57:30;;;;;;;9.10;3.30;;;;;;;;;;5041538;28;20032;-59
2021/08/10 11:00:18;;;;;;;6.93;3.30;;;;;;;;;;5043219;28;20095;-59
2021/08/10 11:03:03;;;;;;;5.82;3.00;;;;;;;;;;5036803;28;20128;-60
2021/08/10 11:05:29;;;;;;;4.63;2.92;;;;;;;;;;5043178;28;20021;-61
2021/08/10 11:07:55;;;;;;;4.22;2.88;;;;;;;;;;5038945;28;20036;-59
2021/08/10 11:10:37;;;;;;;8.75;3.35;;;;;;;;;;5045108;28;20433;-59
2021/08/10 11:13:23;;;;;;;5.00;2.70;;;;;;;;;;5034850;28;20040;-60
2021/08/10 11:15:48;;;;;;;5.07;3.53;;;;;;;;;;5031841;28;20339;-59
2021/08/10 11:18:14;;;;;;;4.50;3.20;;;;;;;;;;5035243;28;20151;-59
2021/08/10 11:20:40;;;;;;;5.38;3.50;;;;;;;;;;5039744;28;20056;-59
2021/08/10 11:23:21;;;;;;;6.63;3.30;;;;;;;;;;5034650;28;20130;-59
2021/08/10 11:25:47;;;;;;;5.68;3.10;;;;;;;;;;5043041;28;20267;-59
2021/08/10 11:28:37;;;;;;;4.50;2.90;;;;;;;;;;5044000;28;20028;-58
2021/08/10 11:31:05;;;;;;;4.32;3.00;;;;;;;;;;5055546;28;20411;-58
2021/08/10 11:33:33;;;;;;;4.43;3.40;;;;;;;;;;5043043;28;20031;-58
2021/08/10 11:36:14;;;;;;;4.25;3.20;;;;;;;;;;5042569;28;20027;-58
2021/08/10 11:38:48;;;;;;;5.85;3.25;;;;;;;;;;5040885;28;20534;-58
2021/08/10 11:41:36;;;;;;;4.78;3.05;;;;;;;;;;5040059;28;20064;-58
2021/08/10 11:44:18;;;;;;;5.30;3.22;;;;;;;;;;5040185;28;20146;-58
2021/08/10 11:46:44;;;;;;;5.40;3.03;;;;;;;;;;5035268;28;20037;-59
2021/08/10 11:49:16;;;;;;;7.00;3.10;;;;;;;;;;5034650;28;20044;-59
2021/08/10 11:51:43;;;;;;;4.72;3.22;;;;;;;;;;5036538;28;20017;-59
2021/08/10 11:54:17;;;;;;;5.70;3.50;;;;;;;;;;5035383;28;20037;-59
2021/08/10 11:57:03;;;;;;;7.68;3.40;;;;;;;;;;5035351;28;20033;-60
2021/08/10 11:59:28;;;;;;;5.38;2.97;;;;;;;;;;5041192;28;20395;-60
2021/08/10 12:01:55;;;;;;;7.63;3.60;;;;;;;;;;5034936;28;20044;-60
2021/08/10 12:04:23;;;;;;;8.43;3.20;;;;;;;;;;5042688;28;20043;-60
2021/08/10 12:06:50;;;;;;;4.70;3.00;;;;;;;;;;5046168;28;20028;-60
2021/08/10 12:09:17;;;;;;;5.97;3.13;;;;;;;;;;5043179;28;20024;-60
2021/08/10 12:11:46;;;;;;;6.35;3.35;;;;;;;;;;5038138;28;20040;-60
2021/08/10 12:14:20;;;;;;;5.40;3.17;;;;;;;;;;5034614;28;20075;-60
2021/08/10 12:17:00;;;;;;;3.83;3.35;;;;;;;;;;5037353;28;20060;-60
2021/08/10 12:19:46;;;;;;;4.93;3.30;;;;;;;;;;5037518;28;20380;-62
2021/08/10 12:22:26;;;;;;;6.30;3.75;;;;;;;;;;5033379;28;20028;-60
2021/08/10 12:24:54;;;;;;;5.32;3.40;;;;;;;;;;5036207;28;20600;-60
2021/08/10 12:27:26;;;;;;;8.38;3.47;;;;;;;;;;5039092;28;20047;-60
2021/08/10 12:29:52;;;;;;;5.00;3.38;;;;;;;;;;5042245;28;20079;-60
2021/08/10 12:32:26;;;;;;;5.05;3.53;;;;;;;;;;5037311;28;20129;-60
2021/08/10 12:34:52;;;;;;;6.43;3.40;;;;;;;;;;5031929;28;20116;-60
2021/08/10 12:37:27;;;;;;;4.78;3.70;;;;;;;;;;5038102;28;20027;-60
2021/08/10 12:39:53;;;;;;;4.57;3.40;;;;;;;;;;5034994;28;20404;-60
2021/08/10 12:42:18;;;;;;;7.28;3.53;;;;;;;;;;5033852;28;20025;-59
2021/08/10 12:44:45;;;;;;;6.20;3.55;;;;;;;;;;5036113;28;20021;-58
2021/08/10 12:47:12;;;;;;;6.90;3.40;;;;;;;;;;5041064;28;20036;-58
2021/08/10 12:49:45;;;;;;;14.05;4.07;;;;;;;;;;5037337;28;20111;-59
2021/08/10 12:52:15;;;;;;;8.60;3.67;;;;;;;;;;5047345;28;20036;-59
2021/08/10 12:54:47;;;;;;;10.00;4.38;;;;;;;;;;5035071;28;20514;-59
2021/08/10 12:57:20;;;;;;;8.02;3.63;;;;;;;;;;5039943;28;20418;-59
2021/08/10 12:59:49;;;;;;;7.32;3.65;;;;;;;;;;5041322;28;20112;-60
2021/08/10 13:02:34;;;;;;;6.85;3.53;;;;;;;;;;5040897;28;20104;-59
2021/08/10 13:05:00;;;;;;;6.28;3.58;;;;;;;;;;5035918;28;20069;-58
2021/08/10 13:07:26;;;;;;;8.02;3.67;;;;;;;;;;5036602;28;20060;-59
2021/08/10 13:09:55;;;;;;;7.50;3.78;;;;;;;;;;5033164;28;20037;-58
2021/08/10 13:12:20;;;;;;;;;;;;;;;;;;5038626;28;20780;-59
2021/08/10 13:14:59;;;;;;;7.35;3.58;;;;;;;;;;5031444;28;19924;-59
2021/08/10 13:17:33;;;;;;;8.00;3.60;;;;;;;;;;5033007;28;20033;-59
2021/08/10 13:20:06;;;;;;;7.80;3.60;;;;;;;;;;5030435;28;20123;-59
2021/08/10 13:23:01;;;;;;;5.53;3.97;;;;;;;;;;5036396;28;20108;-59
2021/08/10 13:25:29;;;;;;;6.90;3.60;;;;;;;;;;5036306;28;20454;-59
2021/08/10 13:28:14;;;;;;;6.47;3.67;;;;;;;;;;5036109;28;20028;-58
2021/08/10 13:30:40;;;;;;;8.30;3.92;;;;;;;;;;5037413;28;20028;-58
2021/08/10 13:33:14;;;;;;;12.40;4.13;;;;;;;;;;5043266;28;20159;-58
2021/08/10 13:35:40;;;;;;;9.43;3.85;;;;;;;;;;5042068;28;20020;-58
2021/08/10 13:38:06;;;;;;;6.70;4.43;;;;;;;;;;5035523;28;20044;-59
2021/08/10 13:40:33;;;;;;;6.22;4.00;;;;;;;;;;5039677;28;20112;-59
2021/08/10 13:42:59;;;;;;;8.80;4.07;;;;;;;;;;5036840;28;20246;-58
2021/08/10 13:45:25;;;;;;;7.93;3.90;;;;;;;;;;5038198;28;20219;-59
2021/08/10 13:47:52;;;;;;;6.65;3.90;;;;;;;;;;5039162;28;20404;-59
2021/08/10 13:50:18;;;;;;;8.65;4.13;;;;;;;;;;5040917;28;20025;-58
2021/08/10 13:52:44;;;;;;;11.15;3.92;;;;;;;;;;5042210;28;20036;-58
2021/08/10 13:55:10;;;;;;;6.85;3.72;;;;;;;;;;5042659;28;20501;-57
2021/08/10 13:57:35;;;;;;;9.20;3.65;;;;;;;;;;5036519;28;20030;-58
2021/08/10 14:00:01;;;;;;;5.90;3.83;;;;;;;;;;5038343;28;20039;-59
2021/08/10 14:02:26;;;;;;;8.07;4.20;;;;;;;;;;5037760;28;20043;-62
2021/08/10 14:04:52;;;;;;;9.23;4.10;;;;;;;;;;5043173;28;20399;-60
2021/08/10 14:07:18;;;;;;;6.20;4.00;;;;;;;;;;5042336;28;20471;-60
2021/08/10 14:09:44;;;;;;;8.35;4.82;;;;;;;;;;5037223;28;20421;-61
2021/08/10 14:12:09;;;;;;;8.75;4.95;;;;;;;;;;5040468;28;20044;-61
2021/08/10 14:14:35;;;;;;;8.15;4.30;;;;;;;;;;5037793;28;20024;-61
2021/08/10 14:17:00;;;;;;;7.50;3.90;;;;;;;;;;5036732;28;20020;-61
2021/08/10 14:19:25;;;;;;;8.43;4.30;;;;;;;;;;5039602;28;20227;-61
2021/08/10 14:21:51;;;;;;;7.90;4.72;;;;;;;;;;5037051;28;20129;-61
2021/08/10 14:24:16;;;;;;;7.63;4.22;;;;;;;;;;5043195;28;20108;-61
2021/08/10 14:26:42;;;;;;;7.72;4.00;;;;;;;;;;5042958;28;20628;-61
2021/08/10 14:29:08;;;;;;;7.97;4.13;;;;;;;;;;5041197;28;20025;-61
2021/08/10 14:31:33;;;;;;;8.02;4.10;;;;;;;;;;5042207;28;21065;-61
2021/08/10 14:33:58;;;;;;;7.03;4.25;;;;;;;;;;5046363;28;20112;-61
2021/08/10 14:36:24;;;;;;;8.25;4.03;;;;;;;;;;5043399;28;20031;-61
2021/08/10 14:38:49;;;;;;;13.00;4.57;;;;;;;;;;5042575;28;20087;-61
2021/08/10 14:41:15;;;;;;;9.73;4.35;;;;;;;;;;5044385;28;20030;-61
2021/08/10 14:43:40;;;;;;;7.80;4.28;;;;;;;;;;5037592;28;20354;-61
2021/08/10 14:46:07;;;;;;;6.63;4.38;;;;;;;;;;5042697;28;20116;-61
2021/08/10 14:48:33;;;;;;;12.85;5.65;;;;;;;;;;5040224;28;20502;-61
2021/08/10 14:50:58;;;;;;;12.98;7.70;;;;;;;;;;5046605;28;20020;-61
2021/08/10 14:53:24;;;;;;;9.32;5.30;;;;;;;;;;5046746;28;20024;-61